AAL122A KRDU-KJFK
Flight info
| Callsign | AAL122A |
|---|---|
| Flight time | N/A |
| Altitude | 35000 |
| Route | BEXGO5 BOUSY RIC TAPPA NHK245004 SHLBK/N0334F170 T315 PANZE V44 CAMRN CAMRN5 |
| Aircraft | A20N/M-SDE2E3FGHIRWXY/LB1 |
Departure
| Time | 2026-05-07 01:27 |
|---|---|
| Airport | Raleigh-Durham International Airport (KRDU) |
Arrival
| Time | N/A |
|---|---|
| Airport | John F. Kennedy International Airport (KJFK) |
| Time | Latitude | Longitude | Altitude | Speed | Heading |
|---|---|---|---|---|---|
| 2026-05-07 00:54 | 35.87897 | -78.79104 | 392 ft | 0 kts | 305° |
| 2026-05-07 01:16 | 35.87895 | -78.79102 | 392 ft | 3 kts | 305° |
| 2026-05-07 01:16 | 35.87880 | -78.79079 | 393 ft | 3 kts | 321° |
| 2026-05-07 01:16 | 35.87869 | -78.79070 | 394 ft | 2 kts | 358° |
| 2026-05-07 01:16 | 35.87857 | -78.79073 | 392 ft | 2 kts | 33° |
| 2026-05-07 01:17 | 35.87847 | -78.79083 | 394 ft | 2 kts | 43° |
| 2026-05-07 01:17 | 35.87839 | -78.79092 | 393 ft | 2 kts | 46° |
| 2026-05-07 01:17 | 35.87832 | -78.79101 | 393 ft | 0 kts | 47° |
| 2026-05-07 01:21 | 35.87851 | -78.79076 | 393 ft | 8 kts | 46° |
| 2026-05-07 01:21 | 35.87895 | -78.79022 | 396 ft | 8 kts | 44° |
| 2026-05-07 01:21 | 35.87928 | -78.78988 | 395 ft | 5 kts | 33° |
| 2026-05-07 01:22 | 35.87969 | -78.78962 | 398 ft | 10 kts | 19° |
| 2026-05-07 01:22 | 35.88067 | -78.79039 | 391 ft | 19 kts | 314° |
| 2026-05-07 01:22 | 35.88173 | -78.78999 | 391 ft | 20 kts | 45° |
| 2026-05-07 01:22 | 35.88271 | -78.78877 | 394 ft | 20 kts | 45° |
| 2026-05-07 01:23 | 35.88372 | -78.78753 | 393 ft | 21 kts | 45° |
| 2026-05-07 01:23 | 35.88472 | -78.78631 | 398 ft | 20 kts | 44° |
| 2026-05-07 01:23 | 35.88584 | -78.78496 | 403 ft | 25 kts | 45° |
| 2026-05-07 01:23 | 35.88717 | -78.78334 | 404 ft | 29 kts | 45° |
| 2026-05-07 01:24 | 35.88868 | -78.78139 | 407 ft | 33 kts | 45° |
| 2026-05-07 01:24 | 35.88995 | -78.77926 | 407 ft | 29 kts | 69° |
| 2026-05-07 01:24 | 35.89125 | -78.77748 | 412 ft | 28 kts | 45° |
| 2026-05-07 01:24 | 35.89216 | -78.77654 | 415 ft | 11 kts | 17° |
| 2026-05-07 01:25 | 35.89268 | -78.77684 | 410 ft | 8 kts | 305° |
| 2026-05-07 01:25 | 35.89309 | -78.77737 | 417 ft | 9 kts | 318° |
| 2026-05-07 01:25 | 35.89357 | -78.77796 | 411 ft | 11 kts | 308° |
| 2026-05-07 01:25 | 35.89326 | -78.77880 | 408 ft | 14 kts | 221° |
| 2026-05-07 01:26 | 35.89302 | -78.77908 | 414 ft | 18 kts | 224° |
| 2026-05-07 01:26 | 35.89036 | -78.78232 | 409 ft | 87 kts | 226° |
| 2026-05-07 01:26 | 35.88469 | -78.78935 | 393 ft | 142 kts | 225° |
| 2026-05-07 01:26 | 35.87683 | -78.79904 | 522 ft | 172 kts | 224° |
| 2026-05-07 01:27 | 35.86803 | -78.80941 | 1104 ft | 173 kts | 224° |
| 2026-05-07 01:27 | 35.85977 | -78.81885 | 2074 ft | 152 kts | 224° |
| 2026-05-07 01:27 | 35.85199 | -78.82755 | 2687 ft | 159 kts | 224° |
| 2026-05-07 01:27 | 35.84308 | -78.83727 | 3137 ft | 179 kts | 224° |
| 2026-05-07 01:28 | 35.83335 | -78.84764 | 3573 ft | 196 kts | 224° |
| 2026-05-07 01:28 | 35.82184 | -78.85905 | 3959 ft | 223 kts | 214° |
| 2026-05-07 01:28 | 35.80624 | -78.86433 | 4417 ft | 254 kts | 186° |
| 2026-05-07 01:28 | 35.78847 | -78.85897 | 5147 ft | 276 kts | 159° |
| 2026-05-07 01:29 | 35.77308 | -78.84361 | 5711 ft | 296 kts | 134° |
| 2026-05-07 01:29 | 35.76061 | -78.82320 | 5906 ft | 299 kts | 131° |
| 2026-05-07 01:29 | 35.74833 | -78.80253 | 5999 ft | 299 kts | 130° |
| 2026-05-07 01:29 | 35.73598 | -78.78176 | 6144 ft | 303 kts | 130° |
| 2026-05-07 01:30 | 35.72384 | -78.76048 | 6710 ft | 308 kts | 123° |
| 2026-05-07 01:30 | 35.71637 | -78.73571 | 7637 ft | 313 kts | 100° |
| 2026-05-07 01:30 | 35.71711 | -78.70885 | 8413 ft | 319 kts | 75° |
| 2026-05-07 01:30 | 35.72594 | -78.68378 | 9149 ft | 322 kts | 56° |
| 2026-05-07 01:31 | 35.73841 | -78.66084 | 9937 ft | 324 kts | 51° |
| 2026-05-07 01:31 | 35.75169 | -78.63820 | 10578 ft | 332 kts | 51° |
| 2026-05-07 01:31 | 35.76540 | -78.61425 | 10872 ft | 354 kts | 52° |
| 2026-05-07 01:31 | 35.77962 | -78.58831 | 11078 ft | 375 kts | 54° |
| 2026-05-07 01:32 | 35.79396 | -78.56119 | 11728 ft | 380 kts | 54° |
| 2026-05-07 01:32 | 35.80829 | -78.53364 | 12456 ft | 383 kts | 54° |
| 2026-05-07 01:32 | 35.82269 | -78.50581 | 13178 ft | 387 kts | 54° |
| 2026-05-07 01:32 | 35.83727 | -78.47763 | 13876 ft | 392 kts | 54° |
| 2026-05-07 01:33 | 35.85198 | -78.44919 | 14502 ft | 396 kts | 54° |
| 2026-05-07 01:33 | 35.86687 | -78.42040 | 15106 ft | 401 kts | 54° |
| 2026-05-07 01:33 | 35.88196 | -78.39122 | 15711 ft | 405 kts | 54° |
| 2026-05-07 01:33 | 35.89716 | -78.36178 | 16309 ft | 410 kts | 53° |
| 2026-05-07 01:34 | 35.91120 | -78.33081 | 16883 ft | 418 kts | 63° |
| 2026-05-07 01:34 | 35.92044 | -78.29644 | 17443 ft | 427 kts | 76° |
| 2026-05-07 01:34 | 35.92469 | -78.25991 | 17981 ft | 434 kts | 82° |
| 2026-05-07 01:34 | 35.92812 | -78.22270 | 18500 ft | 438 kts | 82° |
| 2026-05-07 01:35 | 35.93163 | -78.18520 | 19030 ft | 441 kts | 82° |
| 2026-05-07 01:35 | 35.93519 | -78.14749 | 19564 ft | 444 kts | 82° |
| 2026-05-07 01:35 | 35.93878 | -78.10960 | 20085 ft | 447 kts | 82° |
| 2026-05-07 01:35 | 35.94239 | -78.07143 | 20601 ft | 449 kts | 82° |
| 2026-05-07 01:36 | 35.94604 | -78.03294 | 21128 ft | 453 kts | 82° |
| 2026-05-07 01:36 | 35.94969 | -77.99423 | 21644 ft | 456 kts | 82° |
| 2026-05-07 01:36 | 35.95336 | -77.95521 | 22148 ft | 459 kts | 82° |
| 2026-05-07 01:36 | 35.95703 | -77.91596 | 22656 ft | 462 kts | 82° |
| 2026-05-07 01:37 | 35.96105 | -77.87642 | 23164 ft | 465 kts | 77° |
| 2026-05-07 01:37 | 35.97036 | -77.83835 | 23615 ft | 464 kts | 63° |
| 2026-05-07 01:37 | 35.98633 | -77.80393 | 23991 ft | 462 kts | 51° |
| 2026-05-07 01:37 | 36.00539 | -77.77195 | 24374 ft | 462 kts | 45° |
| 2026-05-07 01:38 | 36.02807 | -77.74430 | 24760 ft | 456 kts | 31° |
| 2026-05-07 01:38 | 36.05474 | -77.72390 | 25124 ft | 447 kts | 17° |
| 2026-05-07 01:38 | 36.08391 | -77.71189 | 25501 ft | 437 kts | 3° |
| 2026-05-07 01:38 | 36.11370 | -77.70872 | 25863 ft | 425 kts | 349° |
| 2026-05-07 01:39 | 36.14255 | -77.71405 | 26247 ft | 416 kts | 339° |
| 2026-05-07 01:39 | 36.17071 | -77.72255 | 26626 ft | 418 kts | 338° |
| 2026-05-07 01:39 | 36.19906 | -77.73114 | 27008 ft | 421 kts | 338° |
| 2026-05-07 01:39 | 36.22766 | -77.73948 | 27373 ft | 424 kts | 339° |
| 2026-05-07 01:40 | 36.25654 | -77.74760 | 27718 ft | 427 kts | 339° |
| 2026-05-07 01:40 | 36.28523 | -77.75550 | 28054 ft | 430 kts | 339° |
| 2026-05-07 01:40 | 36.31455 | -77.76349 | 28388 ft | 432 kts | 339° |
| 2026-05-07 01:40 | 36.34403 | -77.77151 | 28699 ft | 435 kts | 339° |
| 2026-05-07 01:41 | 36.37368 | -77.77958 | 29015 ft | 438 kts | 339° |
| 2026-05-07 01:41 | 36.40347 | -77.78770 | 29313 ft | 440 kts | 339° |
| 2026-05-07 01:41 | 36.43345 | -77.79588 | 29604 ft | 443 kts | 339° |
| 2026-05-07 01:41 | 36.46364 | -77.80413 | 29896 ft | 445 kts | 339° |
| 2026-05-07 01:42 | 36.49401 | -77.81243 | 30171 ft | 447 kts | 339° |
| 2026-05-07 01:42 | 36.52436 | -77.82071 | 30521 ft | 447 kts | 339° |
| 2026-05-07 01:42 | 36.55474 | -77.82899 | 30890 ft | 447 kts | 338° |
| 2026-05-07 01:42 | 36.58509 | -77.83727 | 31281 ft | 445 kts | 338° |
| 2026-05-07 01:43 | 36.61521 | -77.84548 | 31765 ft | 441 kts | 337° |